createdAt,value
2018-05-18T00:00:22.258Z,973.25
2018-05-18T00:01:22.310Z,973.24
2018-05-18T00:02:22.356Z,973.24
2018-05-18T00:03:22.401Z,973.23
2018-05-18T00:04:22.473Z,973.26
2018-05-18T00:05:22.497Z,973.22
2018-05-18T00:06:22.545Z,973.21
2018-05-18T00:07:22.593Z,973.22
2018-05-18T00:08:22.643Z,973.17
2018-05-18T00:09:22.712Z,973.18
2018-05-18T00:10:22.760Z,973.18
2018-05-18T00:11:22.785Z,973.14
2018-05-18T00:12:22.839Z,973.14
2018-05-18T00:13:22.885Z,973.15
2018-05-18T00:14:22.928Z,973.12
2018-05-18T00:15:23.027Z,973.13
2018-05-18T00:16:23.029Z,973.13
2018-05-18T00:17:23.071Z,973.14
2018-05-18T00:18:23.118Z,973.16
2018-05-18T00:19:23.167Z,973.19
2018-05-18T00:20:23.239Z,973.20
2018-05-18T00:21:23.286Z,973.16
2018-05-18T00:22:23.311Z,973.15
2018-05-18T00:23:23.356Z,973.14
2018-05-18T00:24:23.406Z,973.11
2018-05-18T00:25:23.453Z,973.15
2018-05-18T00:26:23.525Z,973.07
2018-05-18T00:27:23.551Z,973.09
2018-05-18T00:28:23.597Z,973.09
2018-05-18T00:29:23.653Z,973.07
2018-05-18T00:30:23.693Z,973.07
2018-05-18T00:31:23.764Z,973.06
2018-05-18T00:32:23.787Z,973.04
2018-05-18T00:33:23.835Z,973.06
2018-05-18T00:34:23.881Z,973.07
2018-05-18T00:35:23.931Z,973.04
2018-05-18T00:36:24.002Z,973.03
2018-05-18T00:37:24.025Z,973.00
2018-05-18T00:38:24.073Z,972.99
2018-05-18T00:39:24.119Z,972.98
2018-05-18T00:40:24.173Z,972.99
2018-05-18T00:41:24.256Z,972.97
2018-05-18T00:42:24.262Z,972.94
2018-05-18T00:43:24.311Z,972.95
2018-05-18T00:44:24.360Z,972.94
2018-05-18T00:45:24.415Z,972.92
2018-05-18T00:46:24.486Z,972.94
2018-05-18T00:47:24.503Z,972.93
2018-05-18T00:48:24.547Z,972.93
2018-05-18T00:49:24.595Z,972.91
2018-05-18T00:50:24.711Z,972.93
2018-05-18T00:51:24.719Z,972.91
2018-05-18T00:52:24.737Z,972.91
2018-05-18T00:53:24.787Z,972.86
2018-05-18T00:54:24.832Z,972.84
2018-05-18T00:55:24.883Z,972.87
2018-05-18T00:56:24.949Z,972.85
2018-05-18T00:57:25.002Z,972.88
2018-05-18T00:58:25.021Z,972.87
2018-05-18T00:59:25.073Z,972.83
2018-05-18T01:00:25.117Z,972.80
2018-05-18T01:01:25.173Z,972.82
2018-05-18T01:02:25.233Z,972.82
2018-05-18T01:03:25.258Z,972.83
2018-05-18T01:04:25.402Z,972.84
2018-05-18T01:05:25.365Z,972.82
2018-05-18T01:06:25.405Z,972.84
2018-05-18T01:07:25.486Z,972.81
2018-05-18T01:08:25.509Z,972.84
2018-05-18T01:09:25.544Z,972.87
2018-05-18T01:10:25.590Z,972.84
2018-05-18T01:11:25.637Z,972.86
2018-05-18T01:12:25.707Z,972.85
2018-05-18T01:13:25.758Z,972.86
2018-05-18T01:14:25.785Z,972.88
2018-05-18T01:15:25.827Z,972.84
2018-05-18T01:16:25.876Z,972.85
2018-05-18T01:17:25.920Z,972.85
2018-05-18T01:18:26.007Z,972.84
2018-05-18T01:19:26.017Z,972.88
2018-05-18T01:20:26.064Z,972.88
2018-05-18T01:21:26.112Z,972.91
2018-05-18T01:22:26.157Z,972.91
2018-05-18T01:23:26.229Z,972.88
2018-05-18T01:24:26.255Z,972.86
2018-05-18T01:25:26.298Z,972.88
2018-05-18T01:26:26.345Z,972.86
2018-05-18T01:27:26.396Z,972.84
2018-05-18T01:28:26.873Z,972.83
2018-05-18T01:29:26.499Z,972.82
2018-05-18T01:30:26.538Z,972.82
2018-05-18T01:31:26.584Z,972.79
2018-05-18T01:32:26.630Z,972.80
2018-05-18T01:33:26.709Z,972.78
2018-05-18T01:34:26.726Z,972.75
2018-05-18T01:35:26.770Z,972.75
2018-05-18T01:36:26.821Z,972.81
2018-05-18T01:37:26.868Z,972.76
2018-05-18T01:38:26.953Z,972.77
2018-05-18T01:39:26.959Z,972.76
2018-05-18T01:40:27.006Z,972.79
2018-05-18T01:41:27.057Z,972.76
2018-05-18T01:42:27.100Z,972.81
2018-05-18T01:43:27.190Z,972.78
2018-05-18T01:44:27.195Z,972.78
2018-05-18T01:45:27.242Z,972.76
2018-05-18T01:46:27.289Z,972.75
2018-05-18T01:47:27.339Z,972.80
2018-05-18T01:48:27.421Z,972.74
2018-05-18T01:49:27.436Z,972.75
2018-05-18T01:50:27.477Z,972.76
2018-05-18T01:51:27.525Z,972.74
2018-05-18T01:52:27.589Z,972.78
2018-05-18T01:53:27.655Z,972.78
2018-05-18T01:54:27.665Z,972.78
2018-05-18T01:55:27.715Z,972.81
2018-05-18T01:56:27.764Z,972.83
2018-05-18T01:57:27.813Z,972.84
2018-05-18T01:58:27.888Z,972.83
2018-05-18T01:59:27.928Z,972.83
2018-05-18T02:00:27.951Z,972.82
2018-05-18T02:01:27.996Z,972.85
2018-05-18T02:02:28.048Z,972.83
2018-05-18T02:03:28.098Z,972.88
2018-05-18T02:04:28.161Z,972.86
2018-05-18T02:05:28.187Z,972.85
2018-05-18T02:06:28.231Z,972.86
2018-05-18T02:07:28.282Z,972.85
2018-05-18T02:08:28.325Z,972.86
2018-05-18T02:09:28.399Z,972.86
2018-05-18T02:10:28.444Z,972.84
2018-05-18T02:11:28.469Z,972.84
2018-05-18T02:12:28.531Z,972.83
2018-05-18T02:13:28.560Z,972.83
2018-05-18T02:14:28.614Z,972.83
2018-05-18T02:15:28.678Z,972.85
2018-05-18T02:16:28.701Z,972.85
2018-05-18T02:17:28.750Z,972.82
2018-05-18T02:18:28.794Z,972.87
2018-05-18T02:19:28.847Z,972.84
2018-05-18T02:20:28.914Z,972.85
2018-05-18T02:21:28.940Z,972.80
2018-05-18T02:22:28.986Z,972.86
2018-05-18T02:23:29.033Z,972.82
2018-05-18T02:24:29.081Z,972.85
2018-05-18T02:25:29.153Z,972.84
2018-05-18T02:26:29.171Z,972.84
2018-05-18T02:27:29.225Z,972.86
2018-05-18T02:28:29.267Z,972.85
2018-05-18T02:29:29.315Z,972.84
2018-05-18T02:30:29.398Z,972.86
2018-05-18T02:31:29.408Z,972.87
2018-05-18T02:32:29.458Z,972.81
2018-05-18T02:33:29.502Z,972.83
2018-05-18T02:34:29.547Z,972.84
2018-05-18T02:35:29.625Z,972.84
2018-05-18T02:36:29.644Z,972.85
2018-05-18T02:37:29.768Z,972.83
2018-05-18T02:38:29.744Z,972.82
2018-05-18T02:39:29.783Z,972.85
2018-05-18T02:40:29.859Z,972.84
2018-05-18T02:41:29.878Z,972.82
2018-05-18T02:42:29.923Z,972.84
2018-05-18T02:43:29.971Z,972.81
2018-05-18T02:44:30.018Z,972.79
2018-05-18T02:45:30.104Z,972.80
2018-05-18T02:46:30.110Z,972.79
2018-05-18T02:47:30.175Z,972.78
2018-05-18T02:48:30.206Z,972.77
2018-05-18T02:49:30.253Z,972.77
2018-05-18T02:50:30.329Z,972.73
2018-05-18T02:51:30.346Z,972.73
2018-05-18T02:52:30.495Z,972.71
2018-05-18T02:53:30.444Z,972.74
2018-05-18T02:54:30.487Z,972.70
2018-05-18T02:55:30.563Z,972.71
2018-05-18T02:56:30.583Z,972.71
2018-05-18T02:57:30.659Z,972.68
2018-05-18T02:58:30.676Z,972.70
2018-05-18T02:59:30.722Z,972.67
2018-05-18T03:00:30.770Z,972.68
2018-05-18T03:01:30.816Z,972.70
2018-05-18T03:02:30.903Z,972.72
2018-05-18T03:03:30.914Z,972.71
2018-05-18T03:04:30.958Z,972.74
2018-05-18T03:05:31.006Z,972.72
2018-05-18T03:06:31.053Z,972.70
2018-05-18T03:07:31.139Z,972.74
2018-05-18T03:08:31.145Z,972.75
2018-05-18T03:09:31.192Z,972.77
2018-05-18T03:10:31.243Z,972.79
2018-05-18T03:11:31.289Z,972.73
2018-05-18T03:12:31.368Z,972.73
2018-05-18T03:13:31.381Z,972.73
2018-05-18T03:14:31.425Z,972.75
2018-05-18T03:15:31.474Z,972.73
2018-05-18T03:16:31.521Z,972.78
2018-05-18T03:17:31.598Z,972.78
2018-05-18T03:18:31.617Z,972.76
2018-05-18T03:19:31.661Z,972.81
2018-05-18T03:20:31.711Z,972.79
2018-05-18T03:21:31.757Z,972.79
2018-05-18T03:22:31.836Z,972.77
2018-05-18T03:23:31.848Z,972.78
2018-05-18T03:24:31.894Z,972.82
2018-05-18T03:25:31.942Z,972.82
2018-05-18T03:26:31.987Z,972.81
2018-05-18T03:27:32.057Z,972.80
2018-05-18T03:28:32.088Z,972.79
2018-05-18T03:29:32.134Z,972.77
2018-05-18T03:30:32.174Z,972.79
2018-05-18T03:31:32.221Z,972.79
2018-05-18T03:32:32.295Z,972.81
2018-05-18T03:33:32.318Z,972.82
2018-05-18T03:34:32.361Z,972.80
2018-05-18T03:35:32.409Z,972.82
2018-05-18T03:36:32.457Z,972.79
2018-05-18T03:37:32.527Z,972.86
2018-05-18T03:38:32.581Z,972.80
2018-05-18T03:39:32.596Z,972.83
2018-05-18T03:40:32.647Z,972.81
2018-05-18T03:41:32.691Z,972.80
2018-05-18T03:42:32.735Z,972.77
2018-05-18T03:43:32.815Z,972.76
2018-05-18T03:44:32.829Z,972.80
2018-05-18T03:45:32.877Z,972.84
2018-05-18T03:46:32.922Z,972.84
2018-05-18T03:47:32.970Z,972.82
2018-05-18T03:48:33.038Z,972.82
2018-05-18T03:49:33.065Z,972.82
2018-05-18T03:50:33.113Z,972.84
2018-05-18T03:51:33.161Z,972.81
2018-05-18T03:52:33.228Z,972.86
2018-05-18T03:53:33.249Z,972.85
2018-05-18T03:54:33.320Z,972.87
2018-05-18T03:55:33.345Z,972.87
2018-05-18T03:56:33.389Z,972.85
2018-05-18T03:57:33.436Z,972.87
2018-05-18T03:58:33.482Z,972.82
2018-05-18T03:59:33.553Z,972.88
2018-05-18T04:00:33.577Z,972.88
2018-05-18T04:01:33.624Z,972.91
2018-05-18T04:02:33.671Z,972.85
2018-05-18T04:03:33.794Z,972.89
2018-05-18T04:04:33.762Z,972.92
2018-05-18T04:05:33.811Z,972.92
2018-05-18T04:06:33.855Z,972.92
2018-05-18T04:07:33.901Z,972.88
2018-05-18T04:08:33.981Z,972.88
2018-05-18T04:09:33.995Z,972.88
2018-05-18T04:10:34.068Z,972.87
2018-05-18T04:11:34.088Z,972.85
2018-05-18T04:12:34.137Z,972.86
2018-05-18T04:13:34.184Z,972.87
2018-05-18T04:14:34.228Z,972.88
2018-05-18T04:15:34.302Z,972.92
2018-05-18T04:16:34.321Z,972.93
2018-05-18T04:17:34.368Z,972.94
2018-05-18T04:18:34.413Z,972.97
2018-05-18T04:19:34.461Z,972.94
2018-05-18T04:20:34.530Z,972.94
2018-05-18T04:21:34.554Z,972.97
2018-05-18T04:22:34.603Z,972.96
2018-05-18T04:23:34.651Z,973.00
2018-05-18T04:24:34.694Z,973.02
2018-05-18T04:25:34.766Z,972.96
2018-05-18T04:26:34.786Z,973.01
2018-05-18T04:27:34.836Z,973.03
2018-05-18T04:28:34.881Z,973.00
2018-05-18T04:29:34.930Z,973.01
2018-05-18T04:30:35.010Z,972.99
2018-05-18T04:31:35.023Z,972.95
2018-05-18T04:32:35.067Z,972.94
2018-05-18T04:33:35.114Z,972.96
2018-05-18T04:34:35.167Z,972.91
2018-05-18T04:35:35.233Z,972.92
2018-05-18T04:36:35.277Z,972.91
2018-05-18T04:37:35.303Z,972.96
2018-05-18T04:38:35.348Z,972.96
2018-05-18T04:39:35.395Z,972.94
2018-05-18T04:40:35.443Z,972.92
2018-05-18T04:41:35.513Z,972.94
2018-05-18T04:42:35.536Z,972.96
2018-05-18T04:43:35.586Z,972.98
2018-05-18T04:44:35.629Z,972.97
2018-05-18T04:45:35.680Z,973.00
2018-05-18T04:46:35.752Z,973.02
2018-05-18T04:47:36.559Z,972.95
2018-05-18T04:48:35.816Z,972.98
2018-05-18T04:49:35.866Z,972.99
2018-05-18T04:50:35.908Z,973.02
2018-05-18T04:51:35.985Z,973.02
2018-05-18T04:52:36.028Z,973.00
2018-05-18T04:53:36.050Z,972.99
2018-05-18T04:54:36.101Z,972.99
2018-05-18T04:55:36.144Z,973.02
2018-05-18T04:56:36.194Z,973.03
2018-05-18T04:57:36.262Z,973.01
2018-05-18T04:58:36.284Z,972.98
2018-05-18T04:59:36.333Z,973.03
2018-05-18T05:00:36.380Z,973.00
2018-05-18T05:01:36.428Z,972.98
2018-05-18T05:02:36.510Z,973.04
2018-05-18T05:03:36.523Z,973.03
2018-05-18T05:04:36.575Z,972.98
2018-05-18T05:05:36.616Z,973.04
2018-05-18T05:06:36.661Z,973.00
2018-05-18T05:07:36.737Z,973.01
2018-05-18T05:08:36.758Z,973.01
2018-05-18T05:09:36.805Z,973.03
2018-05-18T05:10:36.858Z,973.04
2018-05-18T05:11:36.901Z,973.06
2018-05-18T05:12:36.990Z,973.04
2018-05-18T05:13:37.019Z,973.06
2018-05-18T05:14:37.040Z,973.04
2018-05-18T05:15:37.091Z,973.06
2018-05-18T05:16:37.138Z,973.05
2018-05-18T05:17:37.190Z,973.04
2018-05-18T05:18:37.260Z,973.05
2018-05-18T05:19:37.279Z,973.06
2018-05-18T05:20:37.325Z,973.10
2018-05-18T05:21:37.372Z,973.11
2018-05-18T05:22:37.422Z,973.11
2018-05-18T05:23:37.580Z,973.10
2018-05-18T05:24:37.514Z,973.12
2018-05-18T05:25:37.562Z,973.15
2018-05-18T05:26:37.609Z,973.15
2018-05-18T05:27:37.662Z,973.15
2018-05-18T05:28:37.735Z,973.12
2018-05-18T05:29:37.751Z,973.17
2018-05-18T05:30:37.876Z,973.12
2018-05-18T05:31:37.849Z,973.11
2018-05-18T05:32:37.896Z,973.10
2018-05-18T05:33:38.048Z,973.10
2018-05-18T05:34:37.989Z,973.13
2018-05-18T05:35:38.035Z,973.12
2018-05-18T05:36:38.100Z,973.14
2018-05-18T05:37:38.133Z,973.14
2018-05-18T05:38:38.222Z,973.15
2018-05-18T05:39:38.229Z,973.16
2018-05-18T05:40:38.277Z,973.20
2018-05-18T05:41:38.323Z,973.20
2018-05-18T05:42:38.372Z,973.17
2018-05-18T05:43:38.441Z,973.19
2018-05-18T05:44:38.506Z,973.23
2018-05-18T05:45:38.515Z,973.21
2018-05-18T05:46:38.559Z,973.25
2018-05-18T05:47:38.611Z,973.24
2018-05-18T05:48:38.655Z,973.26
2018-05-18T05:49:38.738Z,973.24
2018-05-18T05:50:38.753Z,973.21
2018-05-18T05:51:38.799Z,973.24
2018-05-18T05:52:38.849Z,973.28
2018-05-18T05:53:38.900Z,973.27
2018-05-18T05:54:38.977Z,973.26
2018-05-18T05:55:38.994Z,973.28
2018-05-18T05:56:39.038Z,973.29
2018-05-18T05:57:39.086Z,973.29
2018-05-18T05:58:39.134Z,973.30
2018-05-18T05:59:39.218Z,973.30
2018-05-18T06:00:39.234Z,973.32
2018-05-18T06:01:39.280Z,973.35
2018-05-18T06:02:39.327Z,973.36
2018-05-18T06:03:39.374Z,973.35
2018-05-18T06:04:39.448Z,973.37
2018-05-18T06:05:39.496Z,973.39
2018-05-18T06:06:39.516Z,973.44
2018-05-18T06:07:39.567Z,973.39
2018-05-18T06:08:39.617Z,973.41
2018-05-18T06:09:39.662Z,973.38
2018-05-18T06:10:39.761Z,973.42
2018-05-18T06:11:39.759Z,973.39
2018-05-18T06:12:39.806Z,973.41
2018-05-18T06:13:39.855Z,973.43
2018-05-18T06:14:39.902Z,973.42
2018-05-18T06:15:39.993Z,973.39
2018-05-18T06:16:40.000Z,973.42
2018-05-18T06:17:40.047Z,973.41
2018-05-18T06:18:40.093Z,973.41
2018-05-18T06:19:40.156Z,973.31
2018-05-18T06:20:40.219Z,973.35
2018-05-18T06:21:40.238Z,973.36
2018-05-18T06:22:40.290Z,973.33
2018-05-18T06:23:40.336Z,973.33
2018-05-18T06:24:40.385Z,973.35
2018-05-18T06:25:40.473Z,973.35
2018-05-18T06:26:40.481Z,973.33
2018-05-18T06:27:40.527Z,973.33
2018-05-18T06:28:40.661Z,973.33
2018-05-18T06:29:40.624Z,973.40
2018-05-18T06:30:40.710Z,973.38
2018-05-18T06:31:40.723Z,973.41
2018-05-18T06:32:40.772Z,973.41
2018-05-18T06:33:40.819Z,973.39
2018-05-18T06:34:40.868Z,973.42
2018-05-18T06:35:40.937Z,973.45
2018-05-18T06:36:40.987Z,973.45
2018-05-18T06:37:41.012Z,973.40
2018-05-18T06:38:41.066Z,973.45
2018-05-18T06:39:41.108Z,973.42
2018-05-18T06:40:41.160Z,973.41
2018-05-18T06:41:41.231Z,973.43
2018-05-18T06:42:41.256Z,973.45
2018-05-18T06:43:41.301Z,973.44
2018-05-18T06:44:41.349Z,973.49
2018-05-18T06:45:41.401Z,973.46
2018-05-18T06:46:41.484Z,973.47
2018-05-18T06:47:41.498Z,973.47
2018-05-18T06:48:41.543Z,973.45
2018-05-18T06:49:41.595Z,973.45
2018-05-18T06:50:41.641Z,973.46
2018-05-18T06:51:41.719Z,973.48
2018-05-18T06:52:41.834Z,973.46
2018-05-18T06:53:41.789Z,973.43
2018-05-18T06:54:41.838Z,973.44
2018-05-18T06:55:41.890Z,973.44
2018-05-18T06:56:41.988Z,973.45
2018-05-18T06:57:41.988Z,973.44
2018-05-18T06:58:42.053Z,973.47
2018-05-18T06:59:42.085Z,973.48
2018-05-18T07:00:42.132Z,973.49
2018-05-18T07:01:42.247Z,973.49
2018-05-18T07:02:42.233Z,973.49
2018-05-18T07:03:42.287Z,973.47
2018-05-18T07:04:42.333Z,973.48
2018-05-18T07:05:42.384Z,973.51
2018-05-18T07:06:42.460Z,973.47
2018-05-18T07:07:42.482Z,973.47
2018-05-18T07:08:42.530Z,973.53
2018-05-18T07:09:42.585Z,973.47
2018-05-18T07:10:42.633Z,973.46
2018-05-18T07:11:42.707Z,973.47
2018-05-18T07:12:42.754Z,973.47
2018-05-18T07:13:42.782Z,973.48
2018-05-18T07:14:42.832Z,973.43
2018-05-18T07:15:42.881Z,973.44
2018-05-18T07:16:42.933Z,973.43
2018-05-18T07:17:43.006Z,973.41
2018-05-18T07:18:43.031Z,973.44
2018-05-18T07:19:43.083Z,973.42
2018-05-18T07:20:43.133Z,973.44
2018-05-18T07:21:43.186Z,973.44
2018-05-18T07:22:43.256Z,973.46
2018-05-18T07:23:43.288Z,973.42
2018-05-18T07:24:43.339Z,973.44
2018-05-18T07:25:43.396Z,973.41
2018-05-18T07:26:43.436Z,973.37
2018-05-18T07:27:43.510Z,973.39
2018-05-18T07:28:43.538Z,973.37
2018-05-18T07:29:43.591Z,973.38
2018-05-18T07:30:43.645Z,973.40
2018-05-18T07:31:43.691Z,973.39
2018-05-18T07:32:43.764Z,973.38
2018-05-18T07:33:43.815Z,973.38
2018-05-18T07:34:43.842Z,973.40
2018-05-18T07:35:43.894Z,973.38
2018-05-18T07:36:43.940Z,973.41
2018-05-18T07:37:43.993Z,973.40
2018-05-18T07:38:44.075Z,973.38
2018-05-18T07:39:44.095Z,973.39
2018-05-18T07:40:44.146Z,973.39
2018-05-18T07:41:44.194Z,973.35
2018-05-18T07:42:44.248Z,973.40
2018-05-18T07:43:44.321Z,973.44
2018-05-18T07:44:44.347Z,973.40
2018-05-18T07:45:44.400Z,973.35
2018-05-18T07:46:44.450Z,973.39
2018-05-18T07:47:44.500Z,973.39
2018-05-18T07:48:44.576Z,973.40
2018-05-18T07:49:44.608Z,973.40
2018-05-18T07:50:44.653Z,973.37
2018-05-18T07:51:44.704Z,973.39
2018-05-18T07:52:44.755Z,973.43
2018-05-18T07:53:44.836Z,973.45
2018-05-18T07:54:44.884Z,973.46
2018-05-18T07:55:44.909Z,973.39
2018-05-18T07:56:44.965Z,973.40
2018-05-18T07:57:45.009Z,973.37
2018-05-18T07:58:45.101Z,973.41
2018-05-18T07:59:45.115Z,973.38
2018-05-18T08:00:45.162Z,973.39
2018-05-18T08:01:45.213Z,973.37
2018-05-18T08:02:45.268Z,973.36
2018-05-18T08:03:45.340Z,973.36
2018-05-18T08:04:45.390Z,973.38
2018-05-18T08:05:45.415Z,973.38
2018-05-18T08:06:45.471Z,973.41
2018-05-18T08:07:45.525Z,973.41
2018-05-18T08:08:45.568Z,973.37
2018-05-18T08:09:45.642Z,973.41
2018-05-18T08:10:45.693Z,973.39
2018-05-18T08:11:45.719Z,973.37
2018-05-18T08:12:45.771Z,973.42
2018-05-18T08:13:45.837Z,973.43
2018-05-18T08:14:45.871Z,973.38
2018-05-18T08:15:45.947Z,973.40
2018-05-18T08:16:45.975Z,973.35
2018-05-18T08:17:46.036Z,973.35
2018-05-18T08:18:46.077Z,973.36
2018-05-18T08:19:46.153Z,973.35
2018-05-18T08:20:46.203Z,973.34
2018-05-18T08:21:46.235Z,973.36
2018-05-18T08:22:46.280Z,973.32
2018-05-18T08:23:46.330Z,973.30
2018-05-18T08:24:46.383Z,973.24
2018-05-18T08:25:46.454Z,973.30
2018-05-18T08:26:46.486Z,973.27
2018-05-18T08:27:46.640Z,973.25
2018-05-18T08:28:46.584Z,973.27
2018-05-18T08:29:46.635Z,973.23
2018-05-18T08:30:46.708Z,973.24
2018-05-18T08:31:46.737Z,973.26
2018-05-18T08:32:46.794Z,973.27
2018-05-18T08:33:46.842Z,973.25
2018-05-18T08:34:46.892Z,973.25
2018-05-18T08:35:46.981Z,973.21
2018-05-18T08:36:46.994Z,973.25
2018-05-18T08:37:47.045Z,973.23
2018-05-18T08:38:47.097Z,973.20
2018-05-18T08:39:47.151Z,973.21
2018-05-18T08:40:47.235Z,973.20
2018-05-18T08:41:47.283Z,973.21
2018-05-18T08:42:47.303Z,973.24
2018-05-18T08:43:47.353Z,973.24
2018-05-18T08:44:47.412Z,973.21
2018-05-18T08:45:47.457Z,973.22
2018-05-18T08:46:47.541Z,973.26
2018-05-18T08:47:47.562Z,973.24
2018-05-18T08:48:47.611Z,973.27
2018-05-18T08:49:47.663Z,973.26
2018-05-18T08:50:47.715Z,973.30
2018-05-18T08:51:47.790Z,973.28
2018-05-18T08:52:47.819Z,973.27
2018-05-18T08:53:47.879Z,973.26
2018-05-18T08:54:47.928Z,973.26
2018-05-18T08:55:47.974Z,973.28
2018-05-18T08:56:48.052Z,973.25
2018-05-18T08:57:48.083Z,973.30
2018-05-18T08:58:48.132Z,973.25
2018-05-18T08:59:48.187Z,973.32
2018-05-18T09:00:48.233Z,973.28
2018-05-18T09:01:48.317Z,973.30
2018-05-18T09:02:48.336Z,973.30
2018-05-18T09:03:48.388Z,973.27
2018-05-18T09:04:48.440Z,973.26
2018-05-18T09:05:48.500Z,973.26
2018-05-18T09:06:48.568Z,973.29
2018-05-18T09:07:48.599Z,973.30
2018-05-18T09:08:48.747Z,973.25
2018-05-18T09:09:48.702Z,973.26
2018-05-18T09:10:48.749Z,973.38
2018-05-18T09:11:48.801Z,973.29
2018-05-18T09:12:48.882Z,973.33
2018-05-18T09:13:48.906Z,973.34
2018-05-18T09:14:48.981Z,973.34
2018-05-18T09:15:49.008Z,973.34
2018-05-18T09:16:49.061Z,973.33
2018-05-18T09:17:49.111Z,973.32
2018-05-18T09:18:49.162Z,973.29
2018-05-18T09:19:49.238Z,973.32
2018-05-18T09:20:49.266Z,973.34
2018-05-18T09:21:49.318Z,973.34
2018-05-18T09:22:49.369Z,973.38
2018-05-18T09:23:49.420Z,973.32
2018-05-18T09:24:49.503Z,973.34
2018-05-18T09:25:49.523Z,973.28
2018-05-18T09:26:49.574Z,973.33
2018-05-18T09:27:49.626Z,973.32
2018-05-18T09:28:49.676Z,973.31
2018-05-18T09:29:49.754Z,973.34
2018-05-18T09:30:49.783Z,973.34
2018-05-18T09:31:49.836Z,973.33
2018-05-18T09:32:49.887Z,973.32
2018-05-18T09:33:49.990Z,973.30
2018-05-18T09:34:50.039Z,973.28
2018-05-18T09:35:50.037Z,973.26
2018-05-18T09:36:50.091Z,973.25
2018-05-18T09:37:50.143Z,973.29
2018-05-18T09:38:50.193Z,973.27
2018-05-18T09:39:50.282Z,973.25
2018-05-18T09:40:50.301Z,973.29
2018-05-18T09:41:50.351Z,973.25
2018-05-18T09:42:50.405Z,973.28
2018-05-18T09:43:50.452Z,973.25
2018-05-18T09:44:50.535Z,973.24
2018-05-18T09:45:50.558Z,973.29
2018-05-18T09:46:50.609Z,973.31
2018-05-18T09:47:50.663Z,973.26
2018-05-18T09:48:50.714Z,973.29
2018-05-18T09:49:50.789Z,973.23
2018-05-18T09:50:50.842Z,973.27
2018-05-18T09:51:50.869Z,973.27
2018-05-18T09:52:50.923Z,973.27
2018-05-18T09:53:50.973Z,973.26
2018-05-18T09:54:51.181Z,973.27
2018-05-18T09:55:51.100Z,973.28
2018-05-18T09:56:51.156Z,973.22
2018-05-18T09:57:51.191Z,973.20
2018-05-18T09:58:51.240Z,973.23
2018-05-18T09:59:51.284Z,973.26
2018-05-18T10:00:51.370Z,973.20
2018-05-18T10:01:51.394Z,973.22
2018-05-18T10:02:51.443Z,973.18
2018-05-18T10:03:51.493Z,973.20
2018-05-18T10:04:51.544Z,973.19
2018-05-18T10:05:51.627Z,973.18
2018-05-18T10:06:51.679Z,973.19
2018-05-18T10:07:51.700Z,973.20
2018-05-18T10:08:51.750Z,973.15
2018-05-18T10:09:51.804Z,973.16
2018-05-18T10:10:51.856Z,973.20
2018-05-18T10:11:51.936Z,973.17
2018-05-18T10:12:51.962Z,973.11
2018-05-18T10:13:52.010Z,973.15
2018-05-18T10:14:52.132Z,973.13
2018-05-18T10:15:52.115Z,973.09
2018-05-18T10:16:52.192Z,973.07
2018-05-18T10:17:52.218Z,973.09
2018-05-18T10:18:52.268Z,973.12
2018-05-18T10:19:52.323Z,973.10
2018-05-18T10:20:52.372Z,973.10
2018-05-18T10:21:52.459Z,973.05
2018-05-18T10:22:52.477Z,973.06
2018-05-18T10:23:52.535Z,973.08
2018-05-18T10:24:52.583Z,973.09
2018-05-18T10:25:52.636Z,973.00
2018-05-18T10:26:52.777Z,973.03
2018-05-18T10:27:52.739Z,972.98
2018-05-18T10:28:52.801Z,972.95
2018-05-18T10:29:52.843Z,972.95
2018-05-18T10:30:52.893Z,972.94
2018-05-18T10:31:52.968Z,972.93
2018-05-18T10:32:53.127Z,973.01
2018-05-18T10:33:53.053Z,972.95
2018-05-18T10:34:53.106Z,972.93
2018-05-18T10:35:53.155Z,972.95
2018-05-18T10:36:53.211Z,972.95
2018-05-18T10:37:53.285Z,972.94
2018-05-18T10:38:53.313Z,972.93
2018-05-18T10:39:53.364Z,972.93
2018-05-18T10:40:53.421Z,972.94
2018-05-18T10:41:53.472Z,972.89
2018-05-18T10:42:53.551Z,972.89
2018-05-18T10:43:53.575Z,972.88
2018-05-18T10:44:53.629Z,972.91
2018-05-18T10:45:53.688Z,972.87
2018-05-18T10:46:53.754Z,972.90
2018-05-18T10:47:53.815Z,972.92
2018-05-18T10:48:53.844Z,972.92
2018-05-18T10:49:53.896Z,972.89
2018-05-18T10:50:53.950Z,972.90
2018-05-18T10:51:54.006Z,972.94
2018-05-18T10:52:54.103Z,972.92
2018-05-18T10:53:54.116Z,972.90
2018-05-18T10:54:54.170Z,972.90
2018-05-18T10:55:54.231Z,972.89
2018-05-18T10:56:54.278Z,972.88
2018-05-18T10:57:54.356Z,972.84
2018-05-18T10:58:54.388Z,972.80
2018-05-18T10:59:54.469Z,972.81
2018-05-18T11:00:54.495Z,972.82
2018-05-18T11:01:54.560Z,972.84
2018-05-18T11:02:54.604Z,972.83
2018-05-18T11:03:54.671Z,972.81
2018-05-18T11:04:54.741Z,972.81
2018-05-18T11:05:54.771Z,972.79
2018-05-18T11:06:54.918Z,972.77
2018-05-18T11:07:54.882Z,972.72
2018-05-18T11:08:54.936Z,972.73
2018-05-18T11:09:55.020Z,972.73
2018-05-18T11:10:55.052Z,972.71
2018-05-18T11:11:55.103Z,972.69
2018-05-18T11:12:55.159Z,972.67
2018-05-18T11:13:55.314Z,972.62
2018-05-18T11:14:55.304Z,972.65
2018-05-18T11:15:55.326Z,972.62
2018-05-18T11:16:55.381Z,972.61
2018-05-18T11:17:55.444Z,972.63
2018-05-18T11:18:55.495Z,972.58
2018-05-18T11:19:55.574Z,972.58
2018-05-18T11:20:55.636Z,972.53
2018-05-18T11:21:55.661Z,972.52
2018-05-18T11:22:55.721Z,972.52
2018-05-18T11:23:55.775Z,972.54
2018-05-18T11:24:55.832Z,972.54
2018-05-18T11:25:55.911Z,972.55
2018-05-18T11:26:55.965Z,972.58
2018-05-18T11:27:55.997Z,972.55
2018-05-18T11:28:56.055Z,972.59
2018-05-18T11:29:56.112Z,972.55
2018-05-18T11:30:56.170Z,972.47
2018-05-18T11:31:56.263Z,972.46
2018-05-18T11:32:56.282Z,972.48
2018-05-18T11:33:56.335Z,972.45
2018-05-18T11:34:56.392Z,972.45
2018-05-18T11:35:56.451Z,972.46
2018-05-18T11:36:56.528Z,972.40
2018-05-18T11:37:56.562Z,972.42
2018-05-18T11:38:56.616Z,972.40
2018-05-18T11:39:56.677Z,972.38
2018-05-18T11:40:56.732Z,972.43
2018-05-18T11:41:56.816Z,972.44
2018-05-18T11:42:56.868Z,972.38
2018-05-18T11:43:56.900Z,972.35
2018-05-18T11:44:56.957Z,972.37
2018-05-18T11:45:57.014Z,972.31
2018-05-18T11:46:57.070Z,972.30
2018-05-18T11:47:57.182Z,972.32
2018-05-18T11:48:57.205Z,972.31
2018-05-18T11:49:57.240Z,972.30
2018-05-18T11:50:57.297Z,972.27
2018-05-18T11:51:57.356Z,972.26
2018-05-18T11:52:57.409Z,972.18
2018-05-18T11:53:57.500Z,972.22
2018-05-18T11:54:57.522Z,972.23
2018-05-18T11:55:57.580Z,972.17
2018-05-18T11:56:57.638Z,972.18
2018-05-18T11:57:57.694Z,972.16
2018-05-18T11:58:57.795Z,972.13
2018-05-18T11:59:57.810Z,972.16
2018-05-18T12:00:57.866Z,972.14
2018-05-18T12:01:57.924Z,972.11
2018-05-18T12:02:58.079Z,972.12
2018-05-18T12:03:58.065Z,972.14
2018-05-18T12:04:58.094Z,972.12
2018-05-18T12:05:58.149Z,972.12
2018-05-18T12:06:58.207Z,972.14
2018-05-18T12:07:58.269Z,972.13
2018-05-18T12:08:58.345Z,972.15
2018-05-18T12:09:58.379Z,972.13
2018-05-18T12:10:58.443Z,972.15
2018-05-18T12:11:58.495Z,972.10
2018-05-18T12:12:58.556Z,972.09
2018-05-18T12:13:58.681Z,972.08
2018-05-18T12:14:58.668Z,972.05
2018-05-18T12:15:58.724Z,972.03
2018-05-18T12:16:58.781Z,972.06
2018-05-18T12:17:58.839Z,972.06
2018-05-18T12:18:58.946Z,971.99
2018-05-18T12:19:58.956Z,971.97
2018-05-18T12:20:59.010Z,971.92
2018-05-18T12:21:59.070Z,971.95
2018-05-18T12:22:59.126Z,971.97
2018-05-18T12:23:59.215Z,971.96
2018-05-18T12:24:59.250Z,971.98
2018-05-18T12:25:59.300Z,971.95
2018-05-18T12:26:59.357Z,971.98
2018-05-18T12:27:59.413Z,971.99
2018-05-18T12:28:59.534Z,971.96